sensor_id;sensor_type;location;lat;lon;timestamp;pressure;altitude;pressure_sealevel;temperature;humidity
70053;BME280;57398;52.032;4.376;2023-06-22T00:03:49;103804.25;;;15.77;nan
70053;BME280;57398;52.032;4.376;2023-06-22T00:06:37;103791.13;;;15.77;nan
70053;BME280;57398;52.032;4.376;2023-06-22T00:09:25;103786.59;;;15.70;nan
70053;BME280;57398;52.032;4.376;2023-06-22T00:12:13;103787.13;;;15.66;nan
70053;BME280;57398;52.032;4.376;2023-06-22T00:15:02;103791.28;;;15.60;nan
70053;BME280;57398;52.032;4.376;2023-06-22T00:17:51;103782.16;;;15.56;nan
70053;BME280;57398;52.032;4.376;2023-06-22T00:20:41;103777.97;;;15.47;nan
70053;BME280;57398;52.032;4.376;2023-06-22T00:29:09;103795.56;;;15.38;nan
70053;BME280;57398;52.032;4.376;2023-06-22T00:31:57;103789.63;;;15.44;nan
70053;BME280;57398;52.032;4.376;2023-06-22T00:34:45;103790.38;;;15.53;nan
70053;BME280;57398;52.032;4.376;2023-06-22T00:37:35;103787.81;;;15.45;nan
70053;BME280;57398;52.032;4.376;2023-06-22T00:40:23;103785.84;;;15.47;nan
70053;BME280;57398;52.032;4.376;2023-06-22T00:43:11;103778.78;;;15.47;nan
70053;BME280;57398;52.032;4.376;2023-06-22T00:45:59;103817.88;;;15.34;nan
70053;BME280;57398;52.032;4.376;2023-06-22T00:48:48;103886.34;;;15.31;nan
70053;BME280;57398;52.032;4.376;2023-06-22T00:51:37;103901.81;;;15.41;nan
70053;BME280;57398;52.032;4.376;2023-06-22T00:54:27;103925.09;;;15.36;nan
70053;BME280;57398;52.032;4.376;2023-06-22T00:57:16;103933.25;;;15.41;nan
70053;BME280;57398;52.032;4.376;2023-06-22T01:00:06;103933.97;;;15.35;nan
70053;BME280;57398;52.032;4.376;2023-06-22T01:02:56;103944.06;;;15.38;nan
70053;BME280;57398;52.032;4.376;2023-06-22T01:05:46;103932.59;;;15.39;nan
70053;BME280;57398;52.032;4.376;2023-06-22T01:11:36;103920.09;;;15.49;nan
70053;BME280;57398;52.032;4.376;2023-06-22T01:14:42;103915.72;;;15.41;nan
70053;BME280;57398;52.032;4.376;2023-06-22T01:28:56;103927.75;;;15.27;nan
70053;BME280;57398;52.032;4.376;2023-06-22T01:31:46;103941.25;;;15.16;nan
70053;BME280;57398;52.032;4.376;2023-06-22T01:34:36;103971.13;;;15.30;nan
70053;BME280;57398;52.032;4.376;2023-06-22T01:37:27;103979.69;;;15.24;nan
70053;BME280;57398;52.032;4.376;2023-06-22T01:43:04;104004.53;;;15.28;nan
70053;BME280;57398;52.032;4.376;2023-06-22T01:45:55;104005.53;;;15.27;nan
70053;BME280;57398;52.032;4.376;2023-06-22T01:48:44;104031.19;;;15.32;nan
70053;BME280;57398;52.032;4.376;2023-06-22T01:51:33;104067.41;;;15.28;nan
70053;BME280;57398;52.032;4.376;2023-06-22T01:54:21;104063.00;;;15.20;nan
70053;BME280;57398;52.032;4.376;2023-06-22T01:57:09;104071.00;;;15.27;nan
70053;BME280;57398;52.032;4.376;2023-06-22T02:00:00;104062.84;;;15.22;nan
70053;BME280;57398;52.032;4.376;2023-06-22T02:02:54;104056.47;;;15.16;nan
70053;BME280;57398;52.032;4.376;2023-06-22T02:08:40;104029.97;;;15.11;nan
70053;BME280;57398;52.032;4.376;2023-06-22T02:11:29;104018.91;;;15.01;nan
70053;BME280;57398;52.032;4.376;2023-06-22T02:14:18;104010.53;;;15.05;nan
70053;BME280;57398;52.032;4.376;2023-06-22T02:17:08;104013.19;;;14.97;nan
70053;BME280;57398;52.032;4.376;2023-06-22T02:19:58;103997.47;;;14.97;nan
70053;BME280;57398;52.032;4.376;2023-06-22T02:22:46;103990.78;;;14.95;nan
70053;BME280;57398;52.032;4.376;2023-06-22T02:25:35;104002.41;;;14.92;nan
70053;BME280;57398;52.032;4.376;2023-06-22T02:28:23;103978.69;;;14.94;nan
70053;BME280;57398;52.032;4.376;2023-06-22T02:31:11;103980.16;;;14.96;nan
70053;BME280;57398;52.032;4.376;2023-06-22T02:34:00;103998.03;;;14.84;nan
70053;BME280;57398;52.032;4.376;2023-06-22T02:36:50;104008.50;;;14.84;nan
70053;BME280;57398;52.032;4.376;2023-06-22T02:39:38;104009.13;;;14.86;nan
70053;BME280;57398;52.032;4.376;2023-06-22T02:42:27;104004.72;;;14.87;nan
70053;BME280;57398;52.032;4.376;2023-06-22T02:45:15;104018.13;;;14.92;nan
70053;BME280;57398;52.032;4.376;2023-06-22T02:50:52;104031.56;;;14.81;nan
70053;BME280;57398;52.032;4.376;2023-06-22T02:53:41;104040.06;;;14.83;nan
70053;BME280;57398;52.032;4.376;2023-06-22T02:56:31;104004.44;;;14.65;nan
70053;BME280;57398;52.032;4.376;2023-06-22T02:59:19;104040.53;;;14.86;nan
70053;BME280;57398;52.032;4.376;2023-06-22T03:02:10;104043.50;;;14.83;nan
70053;BME280;57398;52.032;4.376;2023-06-22T03:07:47;104038.63;;;14.72;nan
70053;BME280;57398;52.032;4.376;2023-06-22T03:10:37;104038.63;;;14.72;nan
70053;BME280;57398;52.032;4.376;2023-06-22T03:16:15;104005.44;;;14.64;nan
70053;BME280;57398;52.032;4.376;2023-06-22T03:19:03;103997.09;;;14.69;nan
70053;BME280;57398;52.032;4.376;2023-06-22T03:21:51;103986.13;;;14.74;nan
70053;BME280;57398;52.032;4.376;2023-06-22T03:24:39;103993.16;;;14.65;nan
70053;BME280;57398;52.032;4.376;2023-06-22T03:27:29;103982.41;;;14.60;nan
70053;BME280;57398;52.032;4.376;2023-06-22T03:30:17;103972.59;;;14.62;nan
70053;BME280;57398;52.032;4.376;2023-06-22T03:33:05;103975.81;;;14.72;nan
70053;BME280;57398;52.032;4.376;2023-06-22T03:35:53;103982.19;;;14.70;nan
70053;BME280;57398;52.032;4.376;2023-06-22T03:38:41;103988.25;;;14.70;nan
70053;BME280;57398;52.032;4.376;2023-06-22T03:41:30;103963.94;;;14.61;nan
70053;BME280;57398;52.032;4.376;2023-06-22T03:44:20;103963.44;;;14.66;nan
70053;BME280;57398;52.032;4.376;2023-06-22T03:47:08;103969.94;;;14.70;nan
70053;BME280;57398;52.032;4.376;2023-06-22T03:49:56;103978.94;;;14.68;nan
70053;BME280;57398;52.032;4.376;2023-06-22T03:52:44;103979.44;;;14.71;nan
70053;BME280;57398;52.032;4.376;2023-06-22T03:55:33;103968.63;;;14.74;nan
70053;BME280;57398;52.032;4.376;2023-06-22T03:58:22;103972.38;;;14.80;nan
70053;BME280;57398;52.032;4.376;2023-06-22T04:01:12;103971.84;;;14.84;nan
70053;BME280;57398;52.032;4.376;2023-06-22T04:04:00;103964.31;;;14.90;nan
70053;BME280;57398;52.032;4.376;2023-06-22T04:06:48;103959.72;;;14.92;nan
70053;BME280;57398;52.032;4.376;2023-06-22T04:09:37;103969.97;;;15.01;nan
70053;BME280;57398;52.032;4.376;2023-06-22T04:12:25;103985.16;;;15.06;nan
70053;BME280;57398;52.032;4.376;2023-06-22T04:15:13;103971.56;;;15.11;nan
70053;BME280;57398;52.032;4.376;2023-06-22T04:18:03;103971.56;;;15.11;nan
70053;BME280;57398;52.032;4.376;2023-06-22T04:20:51;103971.41;;;15.12;nan
70053;BME280;57398;52.032;4.376;2023-06-22T04:23:40;103964.19;;;15.14;nan
70053;BME280;57398;52.032;4.376;2023-06-22T04:26:28;103962.66;;;15.28;nan
70053;BME280;57398;52.032;4.376;2023-06-22T04:29:16;103975.88;;;15.35;nan
70053;BME280;57398;52.032;4.376;2023-06-22T04:32:05;103975.28;;;15.47;nan
70053;BME280;57398;52.032;4.376;2023-06-22T04:34:55;103971.44;;;15.58;nan
70053;BME280;57398;52.032;4.376;2023-06-22T04:37:43;103962.06;;;15.64;nan
70053;BME280;57398;52.032;4.376;2023-06-22T04:40:35;103963.75;;;15.80;nan
70053;BME280;57398;52.032;4.376;2023-06-22T04:43:23;103931.25;;;15.89;nan
70053;BME280;57398;52.032;4.376;2023-06-22T04:46:11;103920.50;;;15.99;nan
70053;BME280;57398;52.032;4.376;2023-06-22T04:48:59;103905.97;;;16.11;nan
70053;BME280;57398;52.032;4.376;2023-06-22T04:51:49;103887.25;;;16.29;nan
70053;BME280;57398;52.032;4.376;2023-06-22T04:54:40;103888.66;;;16.46;nan
70053;BME280;57398;52.032;4.376;2023-06-22T04:57:34;103874.28;;;16.57;nan
70053;BME280;57398;52.032;4.376;2023-06-22T05:00:22;103870.91;;;16.63;nan
70053;BME280;57398;52.032;4.376;2023-06-22T05:03:11;103865.94;;;16.68;nan
70053;BME280;57398;52.032;4.376;2023-06-22T05:06:05;103862.03;;;16.79;nan
70053;BME280;57398;52.032;4.376;2023-06-22T05:08:56;103865.78;;;16.91;nan
70053;BME280;57398;52.032;4.376;2023-06-22T05:11:45;103869.19;;;17.07;nan
70053;BME280;57398;52.032;4.376;2023-06-22T05:14:33;103876.91;;;17.15;nan
70053;BME280;57398;52.032;4.376;2023-06-22T05:17:22;103876.41;;;17.26;nan
70053;BME280;57398;52.032;4.376;2023-06-22T05:20:11;103875.34;;;17.42;nan
70053;BME280;57398;52.032;4.376;2023-06-22T05:25:49;103859.44;;;17.50;nan
70053;BME280;57398;52.032;4.376;2023-06-22T05:28:37;103844.00;;;17.41;nan
70053;BME280;57398;52.032;4.376;2023-06-22T05:31:25;103838.56;;;17.42;nan
70053;BME280;57398;52.032;4.376;2023-06-22T05:34:14;103835.34;;;17.47;nan
70053;BME280;57398;52.032;4.376;2023-06-22T05:37:03;103820.22;;;17.49;nan
70053;BME280;57398;52.032;4.376;2023-06-22T05:39:51;103814.78;;;17.50;nan
70053;BME280;57398;52.032;4.376;2023-06-22T05:42:42;103796.38;;;17.50;nan
70053;BME280;57398;52.032;4.376;2023-06-22T05:45:30;103804.91;;;17.59;nan
70053;BME280;57398;52.032;4.376;2023-06-22T05:48:18;103794.00;;;17.62;nan
70053;BME280;57398;52.032;4.376;2023-06-22T05:51:07;103789.41;;;17.71;nan
70053;BME280;57398;52.032;4.376;2023-06-22T05:53:55;103781.44;;;17.86;nan
70053;BME280;57398;52.032;4.376;2023-06-22T05:56:43;103779.03;;;17.97;nan
70053;BME280;57398;52.032;4.376;2023-06-22T05:59:32;103766.97;;;18.10;nan
70053;BME280;57398;52.032;4.376;2023-06-22T06:02:21;103771.84;;;18.19;nan
70053;BME280;57398;52.032;4.376;2023-06-22T06:05:10;103753.84;;;18.30;nan
70053;BME280;57398;52.032;4.376;2023-06-22T06:07:59;103736.06;;;18.32;nan
70053;BME280;57398;52.032;4.376;2023-06-22T06:10:48;103729.78;;;18.33;nan
70053;BME280;57398;52.032;4.376;2023-06-22T06:13:36;103701.47;;;18.35;nan
70053;BME280;57398;52.032;4.376;2023-06-22T06:16:26;103681.22;;;18.49;nan
70053;BME280;57398;52.032;4.376;2023-06-22T06:19:14;103675.13;;;18.41;nan
70053;BME280;57398;52.032;4.376;2023-06-22T06:22:03;103656.69;;;18.41;nan
70053;BME280;57398;52.032;4.376;2023-06-22T06:24:51;103642.53;;;18.49;nan
70053;BME280;57398;52.032;4.376;2023-06-22T06:27:40;103641.53;;;18.50;nan
70053;BME280;57398;52.032;4.376;2023-06-22T06:30:31;103632.03;;;18.56;nan
70053;BME280;57398;52.032;4.376;2023-06-22T06:33:45;103611.75;;;18.56;nan
70053;BME280;57398;52.032;4.376;2023-06-22T06:39:21;103602.63;;;18.66;nan
70053;BME280;57398;52.032;4.376;2023-06-22T06:44:58;103597.19;;;18.67;nan
70053;BME280;57398;52.032;4.376;2023-06-22T06:47:46;103609.91;;;18.70;nan
70053;BME280;57398;52.032;4.376;2023-06-22T06:53:24;103606.22;;;19.04;nan
70053;BME280;57398;52.032;4.376;2023-06-22T06:56:12;103597.06;;;19.14;nan
70053;BME280;57398;52.032;4.376;2023-06-22T06:59:01;103577.44;;;19.10;nan
70053;BME280;57398;52.032;4.376;2023-06-22T07:01:49;103575.31;;;19.32;nan
70053;BME280;57398;52.032;4.376;2023-06-22T07:04:37;103571.75;;;19.51;nan
70053;BME280;57398;52.032;4.376;2023-06-22T07:07:27;103555.25;;;19.62;nan
70053;BME280;57398;52.032;4.376;2023-06-22T07:10:15;103540.88;;;19.58;nan
70053;BME280;57398;52.032;4.376;2023-06-22T07:13:04;103516.88;;;19.73;nan
70053;BME280;57398;52.032;4.376;2023-06-22T07:15:52;103498.91;;;19.88;nan
70053;BME280;57398;52.032;4.376;2023-06-22T07:18:40;103481.78;;;19.98;nan
70053;BME280;57398;52.032;4.376;2023-06-22T07:21:28;103467.59;;;20.17;nan
70053;BME280;57398;52.032;4.376;2023-06-22T07:24:18;103437.91;;;20.40;nan
70053;BME280;57398;52.032;4.376;2023-06-22T07:27:07;103410.69;;;20.40;nan
70053;BME280;57398;52.032;4.376;2023-06-22T07:29:58;103389.56;;;20.58;nan
70053;BME280;57398;52.032;4.376;2023-06-22T07:35:34;103358.97;;;20.69;nan
70053;BME280;57398;52.032;4.376;2023-06-22T07:38:22;103312.50;;;20.91;nan
70053;BME280;57398;52.032;4.376;2023-06-22T07:41:12;103313.31;;;21.04;nan
70053;BME280;57398;52.032;4.376;2023-06-22T07:44:01;103296.19;;;21.06;nan
70053;BME280;57398;52.032;4.376;2023-06-22T07:46:50;103271.41;;;21.07;nan
70053;BME280;57398;52.032;4.376;2023-06-22T07:49:38;103226.81;;;20.99;nan
70053;BME280;57398;52.032;4.376;2023-06-22T07:52:27;103196.69;;;21.00;nan
70053;BME280;57398;52.032;4.376;2023-06-22T07:55:15;103167.41;;;21.02;nan
70053;BME280;57398;52.032;4.376;2023-06-22T07:58:05;103180.25;;;21.22;nan
70053;BME280;57398;52.032;4.376;2023-06-22T08:00:53;103186.66;;;21.49;nan
70053;BME280;57398;52.032;4.376;2023-06-22T08:03:41;103155.81;;;21.55;nan
70053;BME280;57398;52.032;4.376;2023-06-22T08:09:17;103119.63;;;21.72;nan
70053;BME280;57398;52.032;4.376;2023-06-22T08:12:06;103104.75;;;21.83;nan
70053;BME280;57398;52.032;4.376;2023-06-22T08:14:56;103067.34;;;21.96;nan
70053;BME280;57398;52.032;4.376;2023-06-22T08:17:44;103050.84;;;21.72;nan
70053;BME280;57398;52.032;4.376;2023-06-22T08:20:33;103039.47;;;21.72;nan
70053;BME280;57398;52.032;4.376;2023-06-22T08:23:21;103014.19;;;21.98;nan
70053;BME280;57398;52.032;4.376;2023-06-22T08:26:09;102989.97;;;22.23;nan
70053;BME280;57398;52.032;4.376;2023-06-22T08:28:57;102822.81;;;22.36;nan
70053;BME280;57398;52.032;4.376;2023-06-22T08:31:47;102942.56;;;22.66;nan
70053;BME280;57398;52.032;4.376;2023-06-22T08:34:36;102981.88;;;22.52;nan
70053;BME280;57398;52.032;4.376;2023-06-22T08:40:17;102901.03;;;22.49;nan
70053;BME280;57398;52.032;4.376;2023-06-22T08:43:06;102872.59;;;22.62;nan
70053;BME280;57398;52.032;4.376;2023-06-22T08:45:54;103004.16;;;22.78;nan
70053;BME280;57398;52.032;4.376;2023-06-22T08:48:44;103095.94;;;23.06;nan
70053;BME280;57398;52.032;4.376;2023-06-22T08:51:32;102897.75;;;23.18;nan
70053;BME280;57398;52.032;4.376;2023-06-22T08:54:20;102692.09;;;23.33;nan
70053;BME280;57398;52.032;4.376;2023-06-22T08:57:08;102634.44;;;23.03;nan
70053;BME280;57398;52.032;4.376;2023-06-22T08:59:56;102601.56;;;23.09;nan
70053;BME280;57398;52.032;4.376;2023-06-22T09:02:47;102431.69;;;23.20;nan
70053;BME280;57398;52.032;4.376;2023-06-22T09:05:38;102341.09;;;23.99;nan
70053;BME280;57398;52.032;4.376;2023-06-22T09:08:26;102203.97;;;24.58;nan
70053;BME280;57398;52.032;4.376;2023-06-22T09:11:14;102108.06;;;24.83;nan
70053;BME280;57398;52.032;4.376;2023-06-22T09:14:02;101973.81;;;25.24;nan
70053;BME280;57398;52.032;4.376;2023-06-22T09:16:50;101857.91;;;25.23;nan
70053;BME280;57398;52.032;4.376;2023-06-22T09:19:39;101773.19;;;25.44;nan
70053;BME280;57398;52.032;4.376;2023-06-22T09:22:29;101761.94;;;24.40;nan
70053;BME280;57398;52.032;4.376;2023-06-22T09:25:17;101856.16;;;24.23;nan
70053;BME280;57398;52.032;4.376;2023-06-22T09:28:07;101945.69;;;23.65;nan
70053;BME280;57398;52.032;4.376;2023-06-22T09:30:55;101939.19;;;24.05;nan
70053;BME280;57398;52.032;4.376;2023-06-22T09:33:46;101972.59;;;23.82;nan
70053;BME280;57398;52.032;4.376;2023-06-22T09:36:34;102005.06;;;24.03;nan
70053;BME280;57398;52.032;4.376;2023-06-22T09:39:28;101939.16;;;24.10;nan
70053;BME280;57398;52.032;4.376;2023-06-22T09:42:16;101862.59;;;23.98;nan
70053;BME280;57398;52.032;4.376;2023-06-22T09:45:05;102065.47;;;23.82;nan
70053;BME280;57398;52.032;4.376;2023-06-22T09:47:53;102024.31;;;23.50;nan
70053;BME280;57398;52.032;4.376;2023-06-22T09:50:41;102014.50;;;23.51;nan
70053;BME280;57398;52.032;4.376;2023-06-22T09:53:30;102054.16;;;23.66;nan
70053;BME280;57398;52.032;4.376;2023-06-22T09:56:20;101967.59;;;23.80;nan
70053;BME280;57398;52.032;4.376;2023-06-22T09:59:08;102018.50;;;23.82;nan
70053;BME280;57398;52.032;4.376;2023-06-22T10:02:05;101925.75;;;23.67;nan
70053;BME280;57398;52.032;4.376;2023-06-22T10:04:53;101854.16;;;23.91;nan
70053;BME280;57398;52.032;4.376;2023-06-22T10:07:41;102029.91;;;23.83;nan
70053;BME280;57398;52.032;4.376;2023-06-22T10:10:31;102016.00;;;23.96;nan
70053;BME280;57398;52.032;4.376;2023-06-22T10:13:21;102051.78;;;24.28;nan
70053;BME280;57398;52.032;4.376;2023-06-22T10:16:09;101914.28;;;24.49;nan
70053;BME280;57398;52.032;4.376;2023-06-22T10:18:57;101779.00;;;24.72;nan
70053;BME280;57398;52.032;4.376;2023-06-22T10:21:45;101731.50;;;24.32;nan
70053;BME280;57398;52.032;4.376;2023-06-22T10:24:33;101796.03;;;24.33;nan
70053;BME280;57398;52.032;4.376;2023-06-22T10:27:22;101907.91;;;24.26;nan
70053;BME280;57398;52.032;4.376;2023-06-22T10:30:12;101844.38;;;24.30;nan
70053;BME280;57398;52.032;4.376;2023-06-22T10:33:01;101829.47;;;24.53;nan
70053;BME280;57398;52.032;4.376;2023-06-22T10:35:49;101950.03;;;24.09;nan
70053;BME280;57398;52.032;4.376;2023-06-22T10:38:38;102060.94;;;24.17;nan
70053;BME280;57398;52.032;4.376;2023-06-22T10:41:26;102057.75;;;23.46;nan
70053;BME280;57398;52.032;4.376;2023-06-22T10:44:16;102062.44;;;23.59;nan
70053;BME280;57398;52.032;4.376;2023-06-22T10:47:07;102034.00;;;23.65;nan
70053;BME280;57398;52.032;4.376;2023-06-22T10:49:55;102002.44;;;23.98;nan
70053;BME280;57398;52.032;4.376;2023-06-22T10:52:43;101875.66;;;24.14;nan
70053;BME280;57398;52.032;4.376;2023-06-22T10:55:31;101954.69;;;23.63;nan
70053;BME280;57398;52.032;4.376;2023-06-22T10:58:37;102005.28;;;23.72;nan
70053;BME280;57398;52.032;4.376;2023-06-22T11:01:25;102078.72;;;23.82;nan
70053;BME280;57398;52.032;4.376;2023-06-22T11:04:23;102094.81;;;23.56;nan
70053;BME280;57398;52.032;4.376;2023-06-22T11:07:12;102120.13;;;23.83;nan
70053;BME280;57398;52.032;4.376;2023-06-22T11:10:00;102127.06;;;23.79;nan
70053;BME280;57398;52.032;4.376;2023-06-22T11:12:48;102089.06;;;23.83;nan
70053;BME280;57398;52.032;4.376;2023-06-22T11:15:36;102092.91;;;23.62;nan
70053;BME280;57398;52.032;4.376;2023-06-22T11:21:14;102085.16;;;23.76;nan
70053;BME280;57398;52.032;4.376;2023-06-22T11:24:02;102029.66;;;24.09;nan
70053;BME280;57398;52.032;4.376;2023-06-22T11:26:51;102048.19;;;24.14;nan
70053;BME280;57398;52.032;4.376;2023-06-22T11:29:39;102042.88;;;24.14;nan
70053;BME280;57398;52.032;4.376;2023-06-22T11:32:27;101982.53;;;24.24;nan
70053;BME280;57398;52.032;4.376;2023-06-22T11:35:16;102040.72;;;23.92;nan
70053;BME280;57398;52.032;4.376;2023-06-22T11:38:05;102092.91;;;24.01;nan
70053;BME280;57398;52.032;4.376;2023-06-22T11:43:43;102227.09;;;23.78;nan
70053;BME280;57398;52.032;4.376;2023-06-22T11:46:32;102273.25;;;23.72;nan
70053;BME280;57398;52.032;4.376;2023-06-22T11:52:09;102259.00;;;23.58;nan
70053;BME280;57398;52.032;4.376;2023-06-22T11:54:59;102289.75;;;23.54;nan
70053;BME280;57398;52.032;4.376;2023-06-22T11:57:54;102363.28;;;23.33;nan
70053;BME280;57398;52.032;4.376;2023-06-22T12:00:45;102425.03;;;23.18;nan
70053;BME280;57398;52.032;4.376;2023-06-22T12:03:37;102409.41;;;23.16;nan
70053;BME280;57398;52.032;4.376;2023-06-22T12:06:26;102394.56;;;23.05;nan
70053;BME280;57398;52.032;4.376;2023-06-22T12:09:15;102373.31;;;22.90;nan
70053;BME280;57398;52.032;4.376;2023-06-22T12:12:05;102429.75;;;22.80;nan
70053;BME280;57398;52.032;4.376;2023-06-22T12:14:53;102430.00;;;22.84;nan
70053;BME280;57398;52.032;4.376;2023-06-22T12:17:42;102420.72;;;22.76;nan
70053;BME280;57398;52.032;4.376;2023-06-22T12:20:33;102438.75;;;22.79;nan
70053;BME280;57398;52.032;4.376;2023-06-22T12:23:21;102442.47;;;22.88;nan
70053;BME280;57398;52.032;4.376;2023-06-22T12:26:10;102424.44;;;22.80;nan
70053;BME280;57398;52.032;4.376;2023-06-22T12:28:59;102430.56;;;22.91;nan
70053;BME280;57398;52.032;4.376;2023-06-22T12:31:47;102425.78;;;22.93;nan
70053;BME280;57398;52.032;4.376;2023-06-22T12:34:36;102410.47;;;23.10;nan
70053;BME280;57398;52.032;4.376;2023-06-22T12:37:24;102456.25;;;22.85;nan
70053;BME280;57398;52.032;4.376;2023-06-22T12:40:12;102501.91;;;23.03;nan
70053;BME280;57398;52.032;4.376;2023-06-22T12:43:00;102495.28;;;23.05;nan
70053;BME280;57398;52.032;4.376;2023-06-22T12:45:50;102498.75;;;23.26;nan
70053;BME280;57398;52.032;4.376;2023-06-22T12:48:40;102466.41;;;23.14;nan
70053;BME280;57398;52.032;4.376;2023-06-22T12:51:29;102511.19;;;23.00;nan
70053;BME280;57398;52.032;4.376;2023-06-22T12:54:18;102501.38;;;23.11;nan
70053;BME280;57398;52.032;4.376;2023-06-22T12:57:06;102507.69;;;22.94;nan
70053;BME280;57398;52.032;4.376;2023-06-22T13:02:44;102515.41;;;23.01;nan
70053;BME280;57398;52.032;4.376;2023-06-22T13:05:33;102518.88;;;23.07;nan
70053;BME280;57398;52.032;4.376;2023-06-22T13:08:23;102535.84;;;23.06;nan
70053;BME280;57398;52.032;4.376;2023-06-22T13:11:31;102590.78;;;23.26;nan
70053;BME280;57398;52.032;4.376;2023-06-22T13:14:19;102589.44;;;23.33;nan
70053;BME280;57398;52.032;4.376;2023-06-22T13:19:57;102673.06;;;22.93;nan
70053;BME280;57398;52.032;4.376;2023-06-22T13:22:45;102696.84;;;22.88;nan
70053;BME280;57398;52.032;4.376;2023-06-22T13:25:34;102696.72;;;23.05;nan
70053;BME280;57398;52.032;4.376;2023-06-22T13:28:22;102713.03;;;22.92;nan
70053;BME280;57398;52.032;4.376;2023-06-22T13:31:14;102706.09;;;22.80;nan
70053;BME280;57398;52.032;4.376;2023-06-22T13:34:03;102719.53;;;22.69;nan
70053;BME280;57398;52.032;4.376;2023-06-22T13:36:54;102724.53;;;22.65;nan
70053;BME280;57398;52.032;4.376;2023-06-22T13:39:43;102706.66;;;22.88;nan
70053;BME280;57398;52.032;4.376;2023-06-22T13:45:21;102693.91;;;22.79;nan
70053;BME280;57398;52.032;4.376;2023-06-22T13:48:10;102703.69;;;22.79;nan
70053;BME280;57398;52.032;4.376;2023-06-22T13:50:58;102706.34;;;22.79;nan
70053;BME280;57398;52.032;4.376;2023-06-22T13:53:48;102701.84;;;22.79;nan
70053;BME280;57398;52.032;4.376;2023-06-22T13:56:36;102700.66;;;22.60;nan
70053;BME280;57398;52.032;4.376;2023-06-22T13:59:24;102708.41;;;22.72;nan
70053;BME280;57398;52.032;4.376;2023-06-22T14:02:13;102702.09;;;22.78;nan
70053;BME280;57398;52.032;4.376;2023-06-22T14:05:01;102699.00;;;22.86;nan
70053;BME280;57398;52.032;4.376;2023-06-22T14:07:50;102696.50;;;22.74;nan
70053;BME280;57398;52.032;4.376;2023-06-22T14:10:39;102715.59;;;22.76;nan
70053;BME280;57398;52.032;4.376;2023-06-22T14:13:28;102728.03;;;22.71;nan
70053;BME280;57398;52.032;4.376;2023-06-22T14:16:16;102756.69;;;22.47;nan
70053;BME280;57398;52.032;4.376;2023-06-22T14:19:04;102718.19;;;22.34;nan
70053;BME280;57398;52.032;4.376;2023-06-22T14:21:52;102556.31;;;22.20;nan
70053;BME280;57398;52.032;4.376;2023-06-22T14:24:41;102458.81;;;22.02;nan
70053;BME280;57398;52.032;4.376;2023-06-22T14:27:30;102410.34;;;22.01;nan
70053;BME280;57398;52.032;4.376;2023-06-22T14:33:07;102351.88;;;21.92;nan
70053;BME280;57398;52.032;4.376;2023-06-22T14:35:55;102331.72;;;21.86;nan
70053;BME280;57398;52.032;4.376;2023-06-22T14:38:43;102313.22;;;21.86;nan
70053;BME280;57398;52.032;4.376;2023-06-22T14:41:33;102280.41;;;21.87;nan
70053;BME280;57398;52.032;4.376;2023-06-22T14:44:23;102244.97;;;21.88;nan
70053;BME280;57398;52.032;4.376;2023-06-22T14:47:11;102240.69;;;21.82;nan
70053;BME280;57398;52.032;4.376;2023-06-22T14:49:59;102211.88;;;21.81;nan
70053;BME280;57398;52.032;4.376;2023-06-22T14:52:48;102220.84;;;21.74;nan
70053;BME280;57398;52.032;4.376;2023-06-22T14:55:36;102228.25;;;21.67;nan
70053;BME280;57398;52.032;4.376;2023-06-22T14:58:24;102224.72;;;21.51;nan
70053;BME280;57398;52.032;4.376;2023-06-22T15:01:17;102208.25;;;21.39;nan
70053;BME280;57398;52.032;4.376;2023-06-22T15:04:05;102211.41;;;21.36;nan
70053;BME280;57398;52.032;4.376;2023-06-22T15:09:41;102269.25;;;21.32;nan
70053;BME280;57398;52.032;4.376;2023-06-22T15:12:32;102283.53;;;21.31;nan
70053;BME280;57398;52.032;4.376;2023-06-22T15:15:21;102359.66;;;21.29;nan
70053;BME280;57398;52.032;4.376;2023-06-22T15:18:10;102378.66;;;21.26;nan
70053;BME280;57398;52.032;4.376;2023-06-22T15:20:59;102383.84;;;21.16;nan
70053;BME280;57398;52.032;4.376;2023-06-22T15:23:48;102449.72;;;20.96;nan
70053;BME280;57398;52.032;4.376;2023-06-22T15:26:36;102436.06;;;20.77;nan
70053;BME280;57398;52.032;4.376;2023-06-22T15:29:26;102441.34;;;20.77;nan
70053;BME280;57398;52.032;4.376;2023-06-22T15:32:17;102454.31;;;20.78;nan
70053;BME280;57398;52.032;4.376;2023-06-22T15:35:07;102443.47;;;20.80;nan
70053;BME280;57398;52.032;4.376;2023-06-22T15:37:55;102435.81;;;20.78;nan
70053;BME280;57398;52.032;4.376;2023-06-22T15:40:43;102445.00;;;20.54;nan
70053;BME280;57398;52.032;4.376;2023-06-22T15:43:33;102427.75;;;20.46;nan
70053;BME280;57398;52.032;4.376;2023-06-22T15:46:21;102430.97;;;20.48;nan
70053;BME280;57398;52.032;4.376;2023-06-22T15:49:17;102440.34;;;20.39;nan
70053;BME280;57398;52.032;4.376;2023-06-22T15:55:42;102416.97;;;20.25;nan
70053;BME280;57398;52.032;4.376;2023-06-22T15:58:47;102394.91;;;20.15;nan
70053;BME280;57398;52.032;4.376;2023-06-22T16:02:06;102385.09;;;20.10;nan
70053;BME280;57398;52.032;4.376;2023-06-22T16:04:54;102372.31;;;20.02;nan
70053;BME280;57398;52.032;4.376;2023-06-22T16:07:45;102369.16;;;20.00;nan
70053;BME280;57398;52.032;4.376;2023-06-22T16:10:33;102361.69;;;19.97;nan
70053;BME280;57398;52.032;4.376;2023-06-22T16:13:21;102360.34;;;19.94;nan
70053;BME280;57398;52.032;4.376;2023-06-22T16:16:10;102357.03;;;19.82;nan
70053;BME280;57398;52.032;4.376;2023-06-22T16:18:58;102350.31;;;19.74;nan
70053;BME280;57398;52.032;4.376;2023-06-22T16:21:47;102338.03;;;19.80;nan
70053;BME280;57398;52.032;4.376;2023-06-22T16:27:24;102351.22;;;19.80;nan
70053;BME280;57398;52.032;4.376;2023-06-22T16:30:15;102345.38;;;19.78;nan
70053;BME280;57398;52.032;4.376;2023-06-22T16:33:03;102337.22;;;19.79;nan